createdAt,value
2019-03-08T00:02:10.416Z,2.20
2019-03-08T00:04:40.724Z,2.00
2019-03-08T00:07:10.964Z,2.20
2019-03-08T00:09:41.288Z,2.20
2019-03-08T00:12:11.896Z,2.13
2019-03-08T00:14:42.308Z,2.23
2019-03-08T00:17:12.640Z,2.47
2019-03-08T00:19:42.985Z,2.40
2019-03-08T00:22:13.325Z,2.60
2019-03-08T00:24:44.036Z,2.47
2019-03-08T00:27:15.619Z,2.87
2019-03-08T00:29:46.924Z,2.30
2019-03-08T00:32:17.324Z,3.00
2019-03-08T00:34:47.604Z,3.63
2019-03-08T00:37:18.328Z,3.00
2019-03-08T00:39:48.744Z,3.07
2019-03-08T00:42:18.977Z,3.97
2019-03-08T00:44:49.552Z,2.70
2019-03-08T00:47:19.964Z,2.40
2019-03-08T00:49:50.248Z,2.90
2019-03-08T00:52:20.640Z,2.67
2019-03-08T00:54:51.893Z,2.80
2019-03-08T00:57:22.248Z,3.67
2019-03-08T00:59:52.584Z,3.53
2019-03-08T01:02:22.940Z,3.20
2019-03-08T01:04:53.280Z,3.20
2019-03-08T01:07:23.596Z,3.03
2019-03-08T01:09:54.017Z,3.10
2019-03-08T01:12:24.432Z,3.20
2019-03-08T01:14:54.689Z,4.00
2019-03-08T01:17:25.116Z,3.20
2019-03-08T01:19:55.353Z,3.30
2019-03-08T01:22:25.677Z,3.50
2019-03-08T01:24:56.081Z,3.27
2019-03-08T01:27:26.328Z,3.53
2019-03-08T01:29:57.352Z,2.93
2019-03-08T01:32:27.749Z,2.90
2019-03-08T01:34:58.071Z,3.13
2019-03-08T01:37:28.416Z,2.80
2019-03-08T01:39:59.645Z,2.47
2019-03-08T01:42:31.900Z,2.70
2019-03-08T01:45:03.822Z,2.73
2019-03-08T01:47:34.259Z,2.93
2019-03-08T01:50:05.032Z,3.03
2019-03-08T01:52:35.472Z,3.20
2019-03-08T01:55:05.956Z,2.50
2019-03-08T01:57:36.465Z,2.83
2019-03-08T02:00:08.533Z,3.67
2019-03-08T02:02:38.861Z,2.77
2019-03-08T02:05:09.729Z,3.80
2019-03-08T02:07:40.225Z,4.57
2019-03-08T02:10:14.881Z,3.40
2019-03-08T02:12:45.286Z,3.77
2019-03-08T02:15:16.522Z,4.67
2019-03-08T02:17:46.912Z,5.00
2019-03-08T02:20:26.256Z,5.03
2019-03-08T02:22:56.509Z,4.97
2019-03-08T02:25:26.857Z,4.83
2019-03-08T02:27:57.269Z,5.20
2019-03-08T02:30:28.049Z,5.10
2019-03-08T02:32:58.724Z,4.90
2019-03-08T02:35:29.048Z,5.10
2019-03-08T02:37:59.422Z,5.27
2019-03-08T02:40:36.516Z,4.57
2019-03-08T02:43:20.534Z,4.73
2019-03-08T02:45:50.786Z,4.17
2019-03-08T02:48:21.168Z,3.97
2019-03-08T02:50:51.556Z,3.33
2019-03-08T02:53:27.937Z,3.60
2019-03-08T02:55:58.261Z,3.77
2019-03-08T02:58:28.588Z,3.50
2019-03-08T03:00:59.136Z,3.97
2019-03-08T03:03:29.369Z,3.57
2019-03-08T03:05:59.701Z,3.80
2019-03-08T03:08:33.224Z,3.37
2019-03-08T03:11:20.736Z,3.27
2019-03-08T03:13:51.244Z,3.43
2019-03-08T03:16:21.529Z,3.10
2019-03-08T03:18:51.853Z,3.13
2019-03-08T03:21:22.125Z,3.00
2019-03-08T03:23:52.393Z,3.20
2019-03-08T03:26:22.904Z,3.03
2019-03-08T03:28:54.129Z,3.43
2019-03-08T03:31:24.409Z,3.40
2019-03-08T03:33:55.745Z,3.57
2019-03-08T03:36:42.008Z,3.57
2019-03-08T03:39:15.752Z,3.67
2019-03-08T03:41:46.085Z,3.43
2019-03-08T03:44:16.408Z,3.10
2019-03-08T03:46:46.649Z,3.17
2019-03-08T03:49:17.172Z,3.30
2019-03-08T03:51:50.089Z,2.70
2019-03-08T03:54:20.421Z,2.77
2019-03-08T03:56:50.681Z,2.83
2019-03-08T03:59:23.508Z,2.63
2019-03-08T04:01:53.841Z,3.20
2019-03-08T04:04:24.181Z,2.83
2019-03-08T04:06:54.461Z,2.60
2019-03-08T04:09:28.963Z,2.90
2019-03-08T04:11:59.281Z,2.40
2019-03-08T04:14:31.201Z,3.10
2019-03-08T04:19:42.288Z,3.00
2019-03-08T04:22:12.533Z,3.00
2019-03-08T04:24:42.966Z,2.93
2019-03-08T04:27:16.454Z,3.20
2019-03-08T04:29:46.749Z,3.00
2019-03-08T04:32:22.270Z,3.10
2019-03-08T04:34:52.552Z,3.17
2019-03-08T04:37:26.285Z,3.00
2019-03-08T04:39:57.489Z,2.83
2019-03-08T04:42:27.769Z,2.90
2019-03-08T04:44:58.017Z,3.20
2019-03-08T04:47:28.438Z,2.97
2019-03-08T04:49:58.759Z,3.50
2019-03-08T04:52:29.026Z,3.73
2019-03-08T04:54:59.425Z,3.10
2019-03-08T04:57:29.869Z,3.20
2019-03-08T05:00:00.317Z,2.90
2019-03-08T05:02:37.589Z,3.00
2019-03-08T05:05:13.389Z,3.23
2019-03-08T05:07:43.818Z,2.57
2019-03-08T05:10:32.541Z,3.13
2019-03-08T05:13:15.225Z,3.00
2019-03-08T05:15:45.757Z,2.50
2019-03-08T05:18:17.929Z,3.20
2019-03-08T05:20:48.200Z,3.37
2019-03-08T05:23:18.541Z,2.73
2019-03-08T05:25:48.785Z,3.33
2019-03-08T05:28:31.678Z,3.23
2019-03-08T05:31:06.001Z,3.30
2019-03-08T05:33:36.257Z,2.50
2019-03-08T05:36:18.447Z,2.93
2019-03-08T05:38:48.776Z,3.03
2019-03-08T05:41:19.453Z,3.50
2019-03-08T05:43:49.727Z,3.53
2019-03-08T05:46:21.125Z,3.27
2019-03-08T05:48:51.389Z,3.93
2019-03-08T05:51:21.645Z,4.20
2019-03-08T05:53:52.182Z,4.00
2019-03-08T05:56:23.394Z,4.07
2019-03-08T05:58:53.793Z,3.50
2019-03-08T06:01:24.122Z,3.77
2019-03-08T06:03:54.489Z,3.57
2019-03-08T06:06:26.164Z,3.23
2019-03-08T06:08:56.421Z,4.07
2019-03-08T06:11:27.136Z,4.43
2019-03-08T06:13:58.005Z,4.47
2019-03-08T06:16:28.773Z,3.80
2019-03-08T06:18:59.496Z,3.67
2019-03-08T06:21:30.122Z,4.30
2019-03-08T06:24:02.785Z,3.90
2019-03-08T06:26:33.494Z,3.97
2019-03-08T06:29:04.285Z,4.50
2019-03-08T06:31:35.146Z,4.80
2019-03-08T06:34:06.174Z,3.87
2019-03-08T06:36:36.925Z,4.33
2019-03-08T06:39:08.612Z,4.50
2019-03-08T06:41:39.319Z,3.97
2019-03-08T06:44:10.026Z,4.53
2019-03-08T06:46:40.746Z,4.40
2019-03-08T06:49:11.541Z,4.13
2019-03-08T06:51:42.153Z,4.93
2019-03-08T06:54:12.824Z,4.60
2019-03-08T06:56:43.335Z,4.63
2019-03-08T06:59:28.391Z,4.57
2019-03-08T07:02:00.141Z,3.40
2019-03-08T07:04:30.761Z,4.57
2019-03-08T07:07:02.910Z,4.30
2019-03-08T07:09:34.057Z,3.63
2019-03-08T07:12:04.933Z,4.23
2019-03-08T07:14:35.766Z,4.10
2019-03-08T07:17:06.782Z,3.77
2019-03-08T07:19:42.410Z,4.47
2019-03-08T07:22:32.481Z,4.17
2019-03-08T07:25:19.873Z,3.47
2019-03-08T07:28:12.202Z,4.57
2019-03-08T07:31:00.301Z,4.67
2019-03-08T07:33:53.619Z,4.23
2019-03-08T07:36:43.005Z,4.10
2019-03-08T07:39:35.009Z,4.30
2019-03-08T07:42:23.173Z,3.90
2019-03-08T07:45:11.898Z,4.10
2019-03-08T07:47:51.678Z,4.30
2019-03-08T07:50:47.070Z,4.20
2019-03-08T07:53:33.486Z,4.17
2019-03-08T07:56:27.328Z,4.73
2019-03-08T07:59:14.494Z,3.63
2019-03-08T08:02:02.410Z,4.30
2019-03-08T08:04:46.773Z,4.27
2019-03-08T08:07:36.177Z,4.03
2019-03-08T08:10:25.202Z,4.60
2019-03-08T08:13:14.770Z,4.70
2019-03-08T08:15:54.548Z,4.30
2019-03-08T08:18:47.070Z,3.87
2019-03-08T08:21:34.962Z,3.90
2019-03-08T08:24:38.698Z,3.70
2019-03-08T08:27:30.862Z,4.20
2019-03-08T08:30:08.597Z,3.93
2019-03-08T08:32:52.156Z,3.40
2019-03-08T08:35:29.185Z,3.23
2019-03-08T08:38:24.559Z,3.80
2019-03-08T08:41:12.492Z,3.63
2019-03-08T08:44:01.962Z,3.20
2019-03-08T08:47:10.713Z,3.97
2019-03-08T08:49:55.183Z,3.60
2019-03-08T08:52:51.491Z,4.60
2019-03-08T08:55:33.162Z,3.73
2019-03-08T08:58:30.546Z,3.93
2019-03-08T09:01:38.258Z,3.80
2019-03-08T09:04:26.511Z,4.07
2019-03-08T09:07:18.510Z,3.83
2019-03-08T09:10:00.579Z,4.00
2019-03-08T09:12:49.350Z,3.70
2019-03-08T09:15:38.844Z,3.43
2019-03-08T09:18:26.782Z,3.93
2019-03-08T09:21:15.174Z,3.63
2019-03-08T09:24:04.489Z,3.87
2019-03-08T09:26:56.850Z,3.93
2019-03-08T09:29:45.021Z,3.97
2019-03-08T09:32:58.691Z,5.20
2019-03-08T09:35:43.474Z,3.37
2019-03-08T09:38:31.394Z,3.77
2019-03-08T09:41:18.350Z,1.87
2019-03-08T09:44:02.606Z,1.07
2019-03-08T09:46:49.286Z,1.60
2019-03-08T09:49:38.854Z,2.03
2019-03-08T09:52:23.157Z,1.77
2019-03-08T09:55:03.488Z,2.40
2019-03-08T09:57:48.481Z,2.03
2019-03-08T10:00:35.686Z,2.13
2019-03-08T10:03:23.785Z,2.27
2019-03-08T10:06:19.418Z,2.00
2019-03-08T10:08:56.447Z,2.10
2019-03-08T10:11:38.993Z,2.80
2019-03-08T10:14:25.265Z,2.67
2019-03-08T10:17:33.166Z,2.60
2019-03-08T10:20:32.010Z,2.57
2019-03-08T10:23:21.358Z,2.57
2019-03-08T10:26:10.771Z,2.60
2019-03-08T10:28:58.083Z,3.30
2019-03-08T10:31:54.335Z,3.00
2019-03-08T10:34:48.278Z,3.27
2019-03-08T10:37:32.786Z,3.57
2019-03-08T10:40:25.288Z,3.47
2019-03-08T10:43:02.510Z,3.13
2019-03-08T10:45:52.374Z,3.50
2019-03-08T10:48:30.302Z,3.50
2019-03-08T10:51:28.849Z,4.27
2019-03-08T10:54:24.402Z,4.63
2019-03-08T10:57:09.454Z,3.63
2019-03-08T10:59:57.523Z,4.63
2019-03-08T11:02:48.242Z,4.13
2019-03-08T11:05:33.979Z,4.20
2019-03-08T11:08:12.134Z,4.43
2019-03-08T11:10:55.014Z,3.80
2019-03-08T11:14:03.966Z,3.87
2019-03-08T11:16:47.722Z,4.70
2019-03-08T11:19:36.076Z,4.13
2019-03-08T11:22:31.626Z,3.63
2019-03-08T11:25:23.270Z,3.30
2019-03-08T11:28:20.782Z,3.43
2019-03-08T11:30:58.510Z,3.07
2019-03-08T11:33:48.026Z,2.90
2019-03-08T11:36:40.291Z,3.63
2019-03-08T11:39:40.062Z,3.23
2019-03-08T11:42:14.778Z,2.30
2019-03-08T11:45:07.195Z,2.47
2019-03-08T11:47:59.383Z,3.03
2019-03-08T11:50:51.543Z,2.50
2019-03-08T11:53:38.078Z,1.93
2019-03-08T11:56:35.018Z,2.70
2019-03-08T11:59:36.806Z,2.60
2019-03-08T12:02:25.442Z,2.93
2019-03-08T12:05:10.064Z,2.40
2019-03-08T12:07:47.496Z,2.57
2019-03-08T12:10:28.786Z,2.97
2019-03-08T12:13:18.431Z,2.50
2019-03-08T12:16:02.814Z,2.20
2019-03-08T12:19:01.307Z,1.73
2019-03-08T12:21:49.522Z,2.60
2019-03-08T12:24:37.177Z,2.33
2019-03-08T12:27:14.706Z,2.20
2019-03-08T12:30:04.734Z,2.37
2019-03-08T12:32:54.679Z,2.43
2019-03-08T12:35:46.931Z,2.83
2019-03-08T12:38:35.442Z,2.50
2019-03-08T12:41:30.955Z,2.03
2019-03-08T12:44:21.694Z,2.13
2019-03-08T12:47:05.879Z,2.07
2019-03-08T12:49:55.107Z,2.20
2019-03-08T12:52:42.986Z,2.53
2019-03-08T12:55:22.107Z,2.00
2019-03-08T12:58:11.631Z,2.20
2019-03-08T13:00:48.131Z,1.67
2019-03-08T13:03:45.331Z,1.90
2019-03-08T13:06:32.902Z,2.00
2019-03-08T13:09:17.147Z,1.80
2019-03-08T13:11:47.474Z,1.80
2019-03-08T13:14:17.719Z,1.70
2019-03-08T13:16:47.979Z,2.20
2019-03-08T13:19:18.366Z,1.87
2019-03-08T13:21:48.757Z,1.90
2019-03-08T13:24:19.082Z,2.27
2019-03-08T13:26:49.395Z,1.87
2019-03-08T13:29:20.735Z,1.73
2019-03-08T13:31:51.143Z,1.93
2019-03-08T13:34:21.421Z,2.37
2019-03-08T13:36:52.399Z,1.97
2019-03-08T13:39:22.776Z,1.90
2019-03-08T13:41:53.034Z,1.80
2019-03-08T13:44:23.367Z,1.97
2019-03-08T13:46:53.695Z,2.50
2019-03-08T13:49:24.233Z,1.77
2019-03-08T13:51:54.679Z,1.80
2019-03-08T13:54:25.004Z,1.97
2019-03-08T13:56:55.288Z,2.23
2019-03-08T13:59:25.608Z,2.17
2019-03-08T14:01:56.264Z,2.07
2019-03-08T14:04:26.515Z,1.90
2019-03-08T14:06:56.779Z,1.77
2019-03-08T14:09:27.031Z,2.20
2019-03-08T14:11:57.276Z,2.23
2019-03-08T14:14:28.099Z,2.50
2019-03-08T14:16:58.367Z,2.10
2019-03-08T14:19:29.679Z,2.40
2019-03-08T14:21:59.995Z,2.43
2019-03-08T14:24:31.975Z,2.10
2019-03-08T14:27:05.415Z,2.17
2019-03-08T14:29:35.731Z,2.30
2019-03-08T14:32:08.646Z,2.40
2019-03-08T14:34:39.123Z,2.37
2019-03-08T14:37:09.499Z,2.50
2019-03-08T14:39:43.961Z,2.37
2019-03-08T14:42:40.427Z,2.60
2019-03-08T14:45:17.886Z,2.20
2019-03-08T14:47:50.735Z,2.73
2019-03-08T14:50:20.995Z,2.80
2019-03-08T14:52:55.336Z,3.27
2019-03-08T14:55:24.338Z,3.27
2019-03-08T14:57:55.249Z,3.80
2019-03-08T15:00:29.141Z,3.07
2019-03-08T15:02:58.939Z,3.70
2019-03-08T15:05:29.304Z,3.60
2019-03-08T15:07:59.579Z,3.47
2019-03-08T15:10:38.790Z,3.40
2019-03-08T15:13:01.867Z,3.57
2019-03-08T15:15:32.263Z,3.47
2019-03-08T15:18:03.652Z,3.70
2019-03-08T15:20:34.363Z,3.77
2019-03-08T15:23:07.653Z,3.60
2019-03-08T15:25:38.007Z,3.53
2019-03-08T15:28:08.267Z,3.77
2019-03-08T15:30:39.331Z,3.57
2019-03-08T15:33:09.603Z,3.37
2019-03-08T15:35:40.023Z,4.20
2019-03-08T15:38:10.296Z,3.50
2019-03-08T15:40:40.631Z,3.80
2019-03-08T15:43:13.594Z,3.83
2019-03-08T15:45:44.668Z,3.23
2019-03-08T15:48:15.968Z,4.67
2019-03-08T15:50:48.038Z,4.73
2019-03-08T15:53:18.451Z,4.37
2019-03-08T15:55:53.051Z,4.30
2019-03-08T15:58:20.748Z,3.70
2019-03-08T16:00:51.011Z,3.97
2019-03-08T16:03:21.359Z,4.47
2019-03-08T16:05:51.735Z,4.30
2019-03-08T16:08:22.064Z,4.10
2019-03-08T16:10:52.308Z,4.23
2019-03-08T16:13:22.647Z,3.67
2019-03-08T16:15:52.998Z,4.03
2019-03-08T16:18:23.625Z,3.80
2019-03-08T16:20:53.871Z,4.17
2019-03-08T16:23:24.162Z,4.70
2019-03-08T16:25:54.402Z,4.33
2019-03-08T16:28:24.673Z,4.23
2019-03-08T16:31:05.454Z,4.50
2019-03-08T16:33:48.335Z,4.37
2019-03-08T16:36:33.675Z,4.13
2019-03-08T16:39:13.398Z,4.53
2019-03-08T16:42:08.709Z,4.87
2019-03-08T16:44:55.951Z,4.40
2019-03-08T16:47:32.539Z,4.90
2019-03-08T16:50:25.982Z,4.37
2019-03-08T16:53:04.558Z,4.70
2019-03-08T16:55:41.390Z,4.17
2019-03-08T16:58:28.710Z,4.70
2019-03-08T17:01:33.170Z,4.90
2019-03-08T17:04:18.182Z,4.53
2019-03-08T17:06:55.350Z,4.47
2019-03-08T17:09:48.794Z,5.10
2019-03-08T17:12:31.053Z,4.80
2019-03-08T17:15:32.161Z,4.60
2019-03-08T17:18:27.402Z,4.60
2019-03-08T17:21:06.062Z,5.40
2019-03-08T17:23:44.338Z,5.00
2019-03-08T17:26:26.898Z,4.83
2019-03-08T17:29:07.495Z,5.77
2019-03-08T17:32:03.063Z,5.20
2019-03-08T17:34:41.163Z,5.27
2019-03-08T17:37:22.495Z,5.40
2019-03-08T17:40:28.056Z,5.07
2019-03-08T17:43:14.118Z,5.60
2019-03-08T17:46:11.282Z,5.20
2019-03-08T17:49:02.715Z,5.20
2019-03-08T17:52:01.131Z,5.27
2019-03-08T17:54:59.247Z,5.13
2019-03-08T17:57:36.766Z,5.73
2019-03-08T18:00:20.922Z,5.93
2019-03-08T18:03:28.571Z,6.00
2019-03-08T18:06:30.502Z,5.80
2019-03-08T18:09:12.218Z,6.10
2019-03-08T18:11:57.304Z,5.87
2019-03-08T18:14:34.927Z,4.97
2019-03-08T18:17:32.254Z,5.43
2019-03-08T18:20:22.023Z,5.77
2019-03-08T18:22:59.639Z,6.63
2019-03-08T18:25:39.075Z,6.20
2019-03-08T18:28:43.879Z,5.37
2019-03-08T18:31:31.931Z,4.50
2019-03-08T18:34:16.218Z,3.97
2019-03-08T18:37:04.403Z,4.27
2019-03-08T18:39:52.739Z,4.50
2019-03-08T18:42:33.831Z,4.50
2019-03-08T18:45:11.974Z,4.23
2019-03-08T18:48:05.408Z,3.40
2019-03-08T18:50:47.946Z,3.30
2019-03-08T18:53:34.189Z,3.67
2019-03-08T18:56:12.974Z,3.87
2019-03-08T18:58:55.683Z,3.30
2019-03-08T19:01:42.995Z,3.03
2019-03-08T19:04:20.195Z,3.07
2019-03-08T19:07:19.975Z,2.93
2019-03-08T19:10:15.174Z,2.40
2019-03-08T19:12:59.244Z,2.50
2019-03-08T19:15:45.271Z,2.77
2019-03-08T19:18:33.260Z,2.93
2019-03-08T19:21:24.519Z,2.70
2019-03-08T19:24:26.051Z,2.97
2019-03-08T19:27:13.731Z,2.77
2019-03-08T19:30:07.579Z,2.50
2019-03-08T19:33:15.195Z,2.43
2019-03-08T19:36:11.091Z,2.60
2019-03-08T19:38:55.852Z,2.60
2019-03-08T19:41:57.874Z,2.47
2019-03-08T19:44:51.007Z,2.70
2019-03-08T19:47:43.456Z,2.30
2019-03-08T19:50:31.236Z,3.23
2019-03-08T19:53:15.484Z,3.00
2019-03-08T19:56:12.618Z,2.83
2019-03-08T19:58:57.194Z,2.87
2019-03-08T20:01:46.195Z,2.87
2019-03-08T20:04:34.165Z,2.67
2019-03-08T20:07:33.609Z,2.90
2019-03-08T20:10:23.057Z,2.90
2019-03-08T20:13:02.639Z,3.70
2019-03-08T20:15:52.338Z,3.30
2019-03-08T20:18:48.456Z,3.17
2019-03-08T20:21:27.116Z,3.20
2019-03-08T20:24:22.883Z,3.20
2019-03-08T20:27:09.925Z,3.13
2019-03-08T20:29:58.658Z,3.63
2019-03-08T20:32:54.501Z,3.20
2019-03-08T20:35:56.105Z,3.50
2019-03-08T20:38:42.007Z,3.77
2019-03-08T20:41:28.217Z,3.50
2019-03-08T20:44:02.749Z,3.33
2019-03-08T20:46:37.030Z,3.80
2019-03-08T20:49:07.361Z,3.57
2019-03-08T20:51:37.851Z,3.83
2019-03-08T20:54:09.160Z,3.30
2019-03-08T20:56:39.605Z,3.70
2019-03-08T20:59:11.610Z,3.67
2019-03-08T21:01:42.096Z,4.13
2019-03-08T21:04:12.635Z,4.07
2019-03-08T21:06:45.416Z,3.80
2019-03-08T21:09:15.800Z,5.03
2019-03-08T21:11:46.204Z,4.13
2019-03-08T21:14:16.628Z,4.20
2019-03-08T21:16:47.020Z,4.70
2019-03-08T21:19:17.328Z,5.10
2019-03-08T21:21:47.768Z,4.93
2019-03-08T21:24:18.104Z,4.33
2019-03-08T21:26:48.537Z,4.60
2019-03-08T21:29:19.027Z,4.83
2019-03-08T21:31:49.315Z,5.33
2019-03-08T21:34:19.943Z,5.50
2019-03-08T21:36:50.315Z,5.40
2019-03-08T21:39:20.715Z,4.60
2019-03-08T21:41:51.223Z,4.97
2019-03-08T21:44:21.640Z,4.90
2019-03-08T21:46:52.183Z,5.20
2019-03-08T21:49:22.531Z,4.50
2019-03-08T21:51:52.838Z,4.17
2019-03-08T21:54:23.181Z,4.60
2019-03-08T21:56:53.617Z,3.90
2019-03-08T21:59:23.932Z,4.27
2019-03-08T22:01:54.204Z,4.63
2019-03-08T22:04:32.416Z,4.27
2019-03-08T22:07:02.675Z,4.40
2019-03-08T22:09:38.092Z,4.43
2019-03-08T22:12:08.528Z,4.33
2019-03-08T22:14:38.875Z,4.60
2019-03-08T22:17:10.092Z,4.30
2019-03-08T22:19:40.400Z,3.57
2019-03-08T22:22:11.580Z,3.40
2019-03-08T22:24:41.912Z,3.70
2019-03-08T22:27:12.424Z,3.20
2019-03-08T22:29:42.688Z,3.30
2019-03-08T22:32:13.220Z,2.97
2019-03-08T22:34:43.503Z,3.77
2019-03-08T22:37:13.797Z,3.30
2019-03-08T22:39:44.531Z,2.87
2019-03-08T22:42:14.779Z,3.13
2019-03-08T22:44:45.359Z,3.13
2019-03-08T22:47:15.618Z,2.97
2019-03-08T22:49:45.909Z,2.93
2019-03-08T22:52:16.151Z,3.13
2019-03-08T22:54:46.402Z,2.53
2019-03-08T22:57:16.743Z,2.50
2019-03-08T22:59:47.127Z,3.10
2019-03-08T23:02:18.989Z,2.80
2019-03-08T23:04:49.323Z,2.63
2019-03-08T23:07:19.619Z,2.80
2019-03-08T23:09:50.052Z,2.67
2019-03-08T23:12:20.916Z,2.77
2019-03-08T23:14:51.687Z,2.40
2019-03-08T23:17:22.483Z,2.63
2019-03-08T23:19:53.903Z,2.30
2019-03-08T23:22:25.495Z,3.27
2019-03-08T23:24:56.597Z,2.60
2019-03-08T23:27:35.311Z,2.70
2019-03-08T23:30:14.607Z,2.93
2019-03-08T23:32:49.179Z,2.73
2019-03-08T23:35:19.811Z,2.63
2019-03-08T23:37:50.759Z,2.90
2019-03-08T23:40:21.375Z,2.90
2019-03-08T23:42:52.323Z,3.33
2019-03-08T23:45:23.087Z,3.23
2019-03-08T23:47:54.079Z,2.70
2019-03-08T23:50:24.952Z,2.57
2019-03-08T23:52:55.655Z,2.50
2019-03-08T23:55:26.331Z,2.30
2019-03-08T23:57:57.064Z,3.00
